• Join FlightAware (Why Join?)
  • Login
  • US Flag 
11:45PM EDT


 

Airport Tracker/Info


-or-


 

Live Flight TrackerFlight Track Log ✈ N23139 ✈ 25-Apr-2013 ✈ KRDU - KIAH

Flight Track Log - Related Links

Times and Time Zones

All times are in EDT time to prevent confusion due to time zone crossing. See the N23139 flight status page for this flight to view local times or setup timezone preferences in your user account.

Time Position Orientation Groundspeed Altitude Reporting Facility
EDT Latitude Longitude Course Direction KTS MPH feet Rate Location/Type
11:31AM 35.8967 -78.7767 270° West 171 197 1,200  Level Washington Center
11:31AM 35.9242 -78.7597 27° Northeast 191 220 2,500 2,100 Climbing Washington Center
11:32AM 35.9836 -78.7261 25° Northeast 256 295 4,400 2,100 Climbing Washington Center
11:34AM 35.8382 -79.2352 263° West  Level FlightAware Approximate
11:34AM 36.0511 -78.7803 327° Northwest 250 288 7,000  Level Washington Center
11:35AM 35.8280 -79.3481 262° West  Level FlightAware Approximate
11:35AM 36.0342 -78.8592 255° West 247 284 7,000  Level Washington Center
11:36AM 35.8167 -79.4608 270° West  Level FlightAware Approximate
11:36AM 35.9808 -78.9803 241° Southwest 253 291 10,200  Level Washington Center
11:37AM 35.9431 -79.0658 241° Southwest 269 310 11,600 1,320 Climbing Washington Center
11:38AM 35.9006 -79.1564 240° Southwest 300 345 12,900 1,560 Climbing Washington Center
11:40AM 35.8297 -79.3669 248° West 336 387 16,500 1,620 Climbing Atlanta Center
11:41AM 35.8211 -79.4775 265° West 331 381 17,900 1,560 Climbing Atlanta Center
11:42AM 35.8083 -79.5833 262° West 331 381 19,700 1,740 Climbing Atlanta Center
11:43AM 35.7892 -79.6842 257° West 324 373 21,400 1,680 Climbing Atlanta Center
11:44AM 35.7717 -79.7825 258° West 319 367 23,100 1,680 Climbing Atlanta Center
11:45AM 35.7544 -79.8881 259° West 319 367 24,800 1,740 Climbing Atlanta Center
11:46AM 35.7392 -79.9914 260° West 319 367 26,600 1,920 Climbing Atlanta Center
11:47AM 35.7214 -80.0869 257° West 308 354 28,700 1,980 Climbing Atlanta Center
11:48AM 35.7036 -80.1850 257° West 280 322 30,600 1,620 Climbing Atlanta Center
11:49AM 35.6856 -80.2728 256° West 275 316 32,000 1,200 Climbing Atlanta Center
11:50AM 35.6717 -80.3678 260° West 280 322 33,100 960 Climbing Atlanta Center
11:51AM 35.6556 -80.4581 258° West 280 322 34,000 480 Climbing Atlanta Center
11:52AM 35.6228 -80.5464 245° Southwest 286 329 34,100 480 Climbing Atlanta Center
11:53AM 35.5836 -80.6400 243° Southwest 304 350 35,000 420 Climbing Atlanta Center
11:54AM 35.5406 -80.7414 242° Southwest 315 362 35,000  Level Atlanta Center
11:55AM 35.4972 -80.8450 243° Southwest 340 391 35,000  Level Atlanta Center
11:56AM 35.4519 -80.9514 242° Southwest 360 414 35,000  Level Atlanta Center
11:57AM 35.4086 -81.0497 242° Southwest 366 421 35,000 300 Level Atlanta Center
11:58AM 35.3633 -81.1608 243° Southwest 371 427 35,600 480 Climbing Atlanta Center
11:59AM 35.3178 -81.2694 243° Southwest 366 421 36,000 180 Climbing Atlanta Center
12:00PM 35.2661 -81.3881 242° Southwest 366 421 36,000  Level Atlanta Center
12:01PM 35.2206 -81.4989 243° Southwest 366 421 36,000  Level Atlanta Center
12:02PM 35.1747 -81.6072 243° Southwest 371 427 36,000  Level Atlanta Center
12:03PM 35.1267 -81.7125 241° Southwest 371 427 36,000  Level Atlanta Center
12:04PM 35.0786 -81.8206 242° Southwest 371 427 36,000  Level Atlanta Center
12:05PM 35.0386 -81.9281 246° West 365 420 36,000  Level Atlanta Center
12:06PM 35.0322 -82.0450 266° West 344 396 36,000  Level Atlanta Center
12:07PM 35.0319 -82.1617 270° West 349 402 36,000  Level Atlanta Center
12:08PM 35.0297 -82.2783 269° West 349 402 36,000  Level Atlanta Center
12:09PM 35.0019 -82.3881 253° West 343 395 36,000  Level Atlanta Center
12:10PM 34.9700 -82.4900 249° West 353 406 36,000  Level Atlanta Center
12:11PM 34.9419 -82.5969 252° West 348 400 36,000  Level Atlanta Center
12:12PM 34.9119 -82.7114 252° West 347 399 36,000  Level Atlanta Center
12:13PM 34.8797 -82.8233 251° West 352 405 36,000  Level Atlanta Center
12:14PM 34.8453 -82.9428 251° West 352 405 36,000  Level Atlanta Center
12:15PM 34.8150 -83.0572 252° West 352 405 36,000  Level Atlanta Center
12:16PM 34.7825 -83.1661 250° West 352 405 36,000  Level Atlanta Center
12:17PM 34.7539 -83.2728 252° West 352 405 36,000  Level Atlanta Center
12:18PM 34.7233 -83.3817 251° West 352 405 36,000  Level Atlanta Center
12:19PM 34.6925 -83.4956 252° West 352 405 36,000  Level Atlanta Center
12:20PM 34.6617 -83.6044 251° West 347 399 36,000  Level Atlanta Center
12:21PM 34.6328 -83.7156 252° West 347 399 36,000  Level Atlanta Center
12:22PM 34.5997 -83.8242 250° West 352 405 36,000  Level Atlanta Center
12:23PM 34.5686 -83.9353 251° West 352 405 36,000  Level Atlanta Center
12:24PM 34.5353 -84.0489 250° West 352 405 36,000  Level Atlanta Center
12:25PM 34.5039 -84.1572 251° West 347 399 36,000  Level Atlanta Center
12:26PM 34.4744 -84.2706 253° West 353 406 36,000  Level Atlanta Center
12:27PM 34.4367 -84.3914 249° West 353 406 36,000  Level Atlanta Center
12:28PM 34.4050 -84.5044 251° West 348 400 36,000  Level Atlanta Center
12:29PM 34.3711 -84.6150 250° West 353 406 36,000  Level Atlanta Center
12:30PM 34.3392 -84.7256 251° West 353 406 36,000  Level Atlanta Center
12:31PM 34.3050 -84.8386 250° West 353 406 36,000  Level Atlanta Center
12:32PM 34.2731 -84.9514 251° West 353 406 36,000  Level Atlanta Center
12:33PM 34.2389 -85.0614 249° West 353 406 36,000  Level Atlanta Center
12:34PM 34.2044 -85.1717 249° West 353 406 36,000  Level Atlanta Center
12:35PM 34.1700 -85.2867 250° West 353 406 36,000  Level Atlanta Center
12:36PM 34.1394 -85.3967 251° West 353 406 36,000  Level Atlanta Center
12:37PM 34.1028 -85.5089 248° West 353 406 36,000  Level Atlanta Center
12:38PM 34.0681 -85.6211 250° West 358 412 36,000  Level Atlanta Center
12:39PM 34.0350 -85.7358 251° West 365 420 36,000  Level Atlanta Center
12:40PM 34.0047 -85.8281 248° West 365 420 36,000  Level Atlanta Center
12:41PM 33.9675 -85.9425 249° West 358 412 36,000  Level Atlanta Center
12:42PM 33.9344 -86.0519 250° West 358 412 36,000  Level Atlanta Center
12:43PM 33.8992 -86.1661 250° West 358 412 36,000  Level Atlanta Center
12:44PM 33.8636 -86.2778 249° West 358 412 36,000  Level Atlanta Center
12:45PM 33.8303 -86.3894 250° West 364 419 36,000  Level Atlanta Center
12:46PM 33.7925 -86.5033 248° West 364 419 36,000  Level Atlanta Center
12:47PM 33.7569 -86.6172 249° West 369 425 36,000  Level Atlanta Center
12:48PM 33.7211 -86.7286 249° West 369 425 36,000  Level Atlanta Center
12:49PM 33.6850 -86.8422 249° West 369 425 36,000  Level Atlanta Center
12:50PM 33.6492 -86.9536 249° West 369 425 36,000  Level Atlanta Center
12:51PM 33.6111 -87.0644 248° West 364 419 36,000  Level Atlanta Center
12:52PM 33.5728 -87.1778 248° West 369 425 36,000  Level Atlanta Center
12:54PM 33.5067 -87.3775 248° West 362 417 36,000  Level Memphis Center
12:55PM 33.4675 -87.4886 247° West 362 417 36,000  Level Memphis Center
12:56PM 33.4283 -87.5994 247° West 362 417 36,000  Level Memphis Center
12:57PM 33.3908 -87.7100 248° West 362 417 36,000  Level Memphis Center
12:58PM 33.3494 -87.8231 246° West 362 417 36,000  Level Memphis Center
12:59PM 33.3122 -87.9361 249° West 362 417 36,000  Level Memphis Center
01:00PM 33.2786 -88.0339 248° West 362 417 36,000  Level Memphis Center
01:01PM 33.2389 -88.1467 247° West 362 417 36,000  Level Memphis Center
01:02PM 33.2014 -88.2717 250° West 362 417 36,000  Level Memphis Center
01:03PM 33.1592 -88.3794 245° Southwest 362 417 36,000  Level Memphis Center
01:04PM 33.1192 -88.4919 247° West 362 417 36,000  Level Memphis Center
01:05PM 33.0811 -88.6044 248° West 362 417 36,000  Level Memphis Center
01:06PM 33.0408 -88.7142 246° West 362 417 36,000  Level Memphis Center
01:07PM 33.0006 -88.8264 247° West 367 422 36,000  Level Memphis Center
01:08PM 32.9581 -88.9386 246° West 367 422 36,000  Level Memphis Center
01:09PM 32.9197 -89.0506 248° West 367 422 36,000  Level Memphis Center
01:10PM 32.8792 -89.1625 247° West 367 422 36,000  Level Memphis Center
01:11PM 32.8364 -89.2744 246° West 372 428 36,000  Level Memphis Center
01:12PM 32.7956 -89.3861 247° West 372 428 36,000  Level Memphis Center
01:13PM 32.7544 -89.5000 247° West 382 440 36,000  Level Memphis Center
01:14PM 32.7136 -89.6092 246° West 377 434 36,000  Level Memphis Center
01:15PM 32.6725 -89.7256 247° West 377 434 36,000  Level Memphis Center
01:16PM 32.6292 -89.8392 246° West 377 434 36,000  Level Memphis Center
01:17PM 32.5878 -89.9531 247° West 377 434 36,000  Level Memphis Center
01:18PM 32.5464 -90.0639 246° West 377 434 36,000  Level Memphis Center
01:19PM 32.5028 -90.1750 245° Southwest 383 441 36,000  Level Memphis Center
01:20PM 32.4486 -90.2833 239° Southwest 383 441 36,000  Level Memphis Center
01:21PM 32.3900 -90.3869 236° Southwest 388 447 36,000  Level Memphis Center
01:22PM 32.3336 -90.4950 238° Southwest 388 447 36,000  Level Memphis Center
01:23PM 32.2792 -90.6006 239° Southwest 388 447 36,000  Level Memphis Center
01:24PM 32.2225 -90.7083 238° Southwest 388 447 36,000  Level Memphis Center
01:25PM 32.1658 -90.8161 238° Southwest 388 447 36,000  Level Memphis Center
01:26PM 32.1092 -90.9214 238° Southwest 383 441 36,000  Level Memphis Center
01:26PM 32.0917 -90.9608 242° Southwest 384 442 36,000  Level Houston Center
01:27PM 32.0347 -91.0669 238° Southwest 385 443 36,000  Level Houston Center
01:28PM 31.9769 -91.1742 238° Southwest 388 447 36,000  Level Houston Center
01:29PM 31.9186 -91.2817 237° Southwest 390 449 36,000  Level Houston Center
01:30PM 31.8497 -91.4108 238° Southwest 390 449 36,000  Level Houston Center
01:31PM 31.7928 -91.5178 238° Southwest 388 447 36,000  Level Houston Center
01:33PM 31.7353 -91.6256 238° Southwest 389 448 36,000  Level Houston Center
01:34PM 31.6764 -91.7322 237° Southwest 390 449 36,000  Level Houston Center
01:35PM 31.6186 -91.8392 238° Southwest 389 448 36,000  Level Houston Center
01:36PM 31.5489 -91.9686 238° Southwest 393 452 36,000  Level Houston Center
01:37PM 31.4914 -92.0719 237° Southwest 392 451 36,000  Level Houston Center
01:38PM 31.4322 -92.1781 237° Southwest 389 448 36,000  Level Houston Center
01:39PM 31.3739 -92.2856 238° Southwest 393 452 36,000  Level Houston Center
01:40PM 31.3150 -92.3928 237° Southwest 394 453 36,000  Level Houston Center
01:41PM 31.2422 -92.5217 237° Southwest 396 456 36,000  Level Houston Center
01:42PM 31.1842 -92.6297 238° Southwest 394 453 36,000  Level Houston Center
01:43PM 31.1239 -92.7369 237° Southwest 395 455 36,000  Level Houston Center
01:44PM 31.0647 -92.8436 237° Southwest 394 453 36,000 -300 Level Houston Center
01:45PM 31.0044 -92.9506 237° Southwest 395 455 35,400 -1,020 Descending Houston Center
01:46PM 30.9442 -93.0564 236° Southwest 395 455 34,000 -1,800 Descending Houston Center
01:47PM 30.8719 -93.1869 237° Southwest 400 460 31,700 -1,980 Descending Houston Center
01:48PM 30.8100 -93.2964 237° Southwest 405 466 29,900 -1,860 Descending Houston Center
01:49PM 30.7450 -93.4100 236° Southwest 419 482 27,900 -1,920 Descending Houston Center
01:50PM 30.6800 -93.5253 237° Southwest 428 493 26,000 -2,040 Descending Houston Center
01:51PM 30.6047 -93.6592 237° Southwest 419 482 23,800 -2,040 Descending Houston Center
01:52PM 30.5414 -93.7689 236° Southwest 416 479 21,900 -1,800 Descending Houston Center
01:53PM 30.4794 -93.8775 237° Southwest 410 472 20,100 -1,800 Descending Houston Center
01:54PM 30.4150 -93.9869 236° Southwest 412 474 18,200 -1,980 Descending Houston Center
01:55PM 30.3542 -94.0922 236° Southwest 404 465 16,100 -2,280 Descending Houston Center
01:56PM 30.2914 -94.2022 237° Southwest 373 429 13,700 -1,920 Descending Houston Center
01:57PM 30.2317 -94.3031 236° Southwest 349 402 12,100 -960 Descending Houston Center
01:58PM 30.1922 -94.3894 242° Southwest 316 364 11,800 -720 Descending Houston Center
01:59PM 30.1778 -94.4761 259° West 304 350 10,800 -1,140 Descending Houston Center
01:59PM 30.1747 -94.4942 259° West 303 349 10,500 -1,440 Descending Houston Center
02:00PM 30.1625 -94.5578 257° West 278 320 9,500 -1,380 Descending Houston Center
02:00PM 30.1603 -94.5831 264° West 286 329 9,100 -1,260 Descending Houston Center
02:01PM 30.1481 -94.6467 257° West 276 318 8,200 -1,200 Descending Houston Center
02:02PM 30.1461 -94.6686 264° West 274 315 7,900 -1,200 Descending Houston Center
02:02PM 30.1336 -94.7356 258° West 277 319 7,000 -1,260 Descending Houston Center
02:03PM 30.1303 -94.7550 259° West 276 318 6,600 -840 Descending Houston Center
02:03PM 30.1175 -94.8294 259° West 275 316 6,100 -720 Descending Houston Center
02:04PM 30.1161 -94.8403 262° West 273 314 5,900  Descending Houston Center
02:04PM 30.1050 -94.9203 261° West 279 321 6,100 60 Climbing Houston Center
02:05PM 30.1067 -94.9450 274° West 277 319 6,000  Descending Houston Center
02:05PM 30.1058 -95.0194 269° West 281 323 6,100  Climbing Houston Center
02:06PM 30.1064 -95.0336 273° West 279 321 6,000  Descending Houston Center
02:06PM 30.1053 -95.1017 269° West 276 318 6,100  Climbing Houston Center
02:07PM 30.1061 -95.1217 273° West 275 316 6,000  Descending Houston Center
02:07PM 30.1050 -95.1886 269° West 259 298 6,100  Climbing Houston Center
02:08PM 30.1069 -95.2044 278° West 261 300 6,000  Descending Houston Center
02:08PM 30.1058 -95.2658 269° West 236 272 6,100  Climbing Houston Center
02:09PM 30.1069 -95.2947 273° West 238 274 6,000 -240 Descending Houston Center
02:09PM 30.1067 -95.3431 270° West 230 265 5,900 -780 Descending Houston Center
02:10PM 30.1069 -95.3678 271° West 231 266 5,200 -1,680 Descending Houston Center
02:10PM 30.1072 -95.4200 270° West 237 273 4,200 -1,500 Descending Houston Center
02:11PM 30.1067 -95.4431 268° West 234 269 3,700 -900 Descending Houston Center
02:12PM 30.0842 -95.4906 241° Southwest 219 252 3,200 -780 Descending Houston Center
02:12PM 30.0719 -95.4931 190° South 236 272 2,900 -900 Descending Houston Center